createdAt,value
2022-11-01T00:00:57.247Z,100936.38
2022-11-01T00:03:28.039Z,100926.59
2022-11-01T00:05:57.126Z,100932.94
2022-11-01T00:08:26.822Z,100931.81
2022-11-01T00:11:04.720Z,100920.50
2022-11-01T00:13:36.493Z,100932.44
2022-11-01T00:16:08.150Z,100924.09
2022-11-01T00:18:39.990Z,100929.75
2022-11-01T00:21:10.353Z,100923.34
2022-11-01T00:23:40.467Z,100916.84
2022-11-01T00:26:12.821Z,100918.22
2022-11-01T00:28:44.121Z,100906.16
2022-11-01T00:31:19.427Z,100897.78
2022-11-01T00:33:51.015Z,100906.91
2022-11-01T00:36:19.743Z,100901.84
2022-11-01T00:38:52.633Z,100913.63
2022-11-01T00:41:22.529Z,100905.16
2022-11-01T00:43:51.235Z,100896.72
2022-11-01T00:46:20.216Z,100898.28
2022-11-01T00:48:51.274Z,100891.41
2022-11-01T00:51:19.868Z,100904.41
2022-11-01T00:53:50.311Z,100914.75
2022-11-01T00:56:20.594Z,100901.97
2022-11-01T00:58:51.760Z,100899.06
2022-11-01T01:01:23.628Z,100892.50
2022-11-01T01:03:53.872Z,100881.06
2022-11-01T01:06:22.758Z,100886.72
2022-11-01T01:08:51.063Z,100878.03
2022-11-01T01:11:20.165Z,100875.22
2022-11-01T01:13:50.350Z,100873.00
2022-11-01T01:16:22.340Z,100871.03
2022-11-01T01:18:56.057Z,100871.88
2022-11-01T01:21:24.524Z,100868.31
2022-11-01T01:23:54.987Z,100858.47
2022-11-01T01:26:23.575Z,100857.88
2022-11-01T01:28:57.853Z,100847.94
2022-11-01T01:31:26.810Z,100860.97
2022-11-01T01:34:00.772Z,100860.75
2022-11-01T01:36:29.447Z,100865.00
2022-11-01T01:38:58.731Z,100864.56
2022-11-01T01:41:44.859Z,100849.09
2022-11-01T01:45:24.743Z,100851.84
2022-11-01T01:47:56.172Z,100854.22
2022-11-01T01:50:32.463Z,100853.09
2022-11-01T01:53:09.542Z,100843.38
2022-11-01T01:55:43.990Z,100851.13
2022-11-01T01:58:14.798Z,100846.69
2022-11-01T02:00:45.123Z,100843.97
2022-11-01T02:03:18.864Z,100832.66
2022-11-01T02:05:54.808Z,100837.81
2022-11-01T02:08:28.444Z,100836.34
2022-11-01T02:11:02.052Z,100830.47
2022-11-01T02:13:34.827Z,100833.91
2022-11-01T02:16:37.368Z,100825.34
2022-11-01T02:19:48.515Z,100817.69
2022-11-01T02:22:26.872Z,100820.72
2022-11-01T02:25:11.661Z,100824.31
2022-11-01T02:28:09.826Z,100825.28
2022-11-01T02:30:52.695Z,100830.94
2022-11-01T02:33:30.077Z,100827.28
2022-11-01T02:36:05.758Z,100828.38
2022-11-01T02:38:43.659Z,100831.81
2022-11-01T02:41:19.307Z,100827.06
2022-11-01T02:43:57.411Z,100831.00
2022-11-01T02:46:45.361Z,100839.19
2022-11-01T02:49:21.632Z,100835.63
2022-11-01T02:51:52.558Z,100828.44
2022-11-01T02:54:32.413Z,100833.72
2022-11-01T02:57:07.874Z,100833.03
2022-11-01T02:59:45.225Z,100840.44
2022-11-01T03:02:37.560Z,100836.59
2022-11-01T03:05:15.161Z,100836.75
2022-11-01T03:07:55.136Z,100821.59
2022-11-01T03:10:33.936Z,100832.97
2022-11-01T03:13:14.511Z,100824.25
2022-11-01T03:15:56.510Z,100821.09
2022-11-01T03:18:33.593Z,100826.09
2022-11-01T03:21:16.996Z,100841.81
2022-11-01T03:23:55.795Z,100835.19
2022-11-01T03:26:29.342Z,100850.22
2022-11-01T03:29:04.480Z,100849.72
2022-11-01T03:31:36.688Z,100844.56
2022-11-01T03:34:09.980Z,100849.56
2022-11-01T03:36:44.672Z,100843.38
2022-11-01T03:39:21.753Z,100851.59
2022-11-01T03:41:56.523Z,100853.47
2022-11-01T03:44:33.163Z,100861.72
2022-11-01T03:47:05.223Z,100857.03
2022-11-01T03:49:37.549Z,100848.31
2022-11-01T03:52:08.859Z,100855.25
2022-11-01T03:54:38.107Z,100854.78
2022-11-01T03:57:08.731Z,100847.47
2022-11-01T03:59:37.541Z,100853.75
2022-11-01T04:04:42.889Z,100864.75
2022-11-01T04:07:13.479Z,100872.69
2022-11-01T04:09:43.768Z,100879.09
2022-11-01T04:12:12.435Z,100890.47
2022-11-01T04:15:00.059Z,100901.41
2022-11-01T04:17:47.398Z,100901.63
2022-11-01T04:20:36.788Z,100891.13
2022-11-01T04:23:09.820Z,100908.88
2022-11-01T04:25:39.458Z,100906.56
2022-11-01T04:28:08.800Z,100905.41
2022-11-01T04:30:37.951Z,100913.03
2022-11-01T04:33:07.033Z,100923.38
2022-11-01T04:35:38.336Z,100935.63
2022-11-01T04:38:12.089Z,100945.59
2022-11-01T04:40:42.331Z,100953.81
2022-11-01T04:43:12.375Z,100934.66
2022-11-01T04:45:41.355Z,100953.41
2022-11-01T04:48:17.073Z,100929.22
2022-11-01T04:50:46.257Z,100940.31
2022-11-01T04:53:17.502Z,100931.06
2022-11-01T04:55:47.399Z,100948.38
2022-11-01T04:58:18.783Z,100951.56
2022-11-01T05:00:47.895Z,100965.31
2022-11-01T05:03:17.278Z,100952.25
2022-11-01T05:05:49.917Z,100952.94
2022-11-01T05:08:21.180Z,100942.44
2022-11-01T05:10:57.948Z,100961.88
2022-11-01T05:13:28.170Z,100981.31
2022-11-01T05:16:20.752Z,100967.59
2022-11-01T05:18:52.436Z,100936.91
2022-11-01T05:21:22.539Z,100963.00
2022-11-01T05:23:55.927Z,100964.59
2022-11-01T05:26:24.352Z,100962.63
2022-11-01T05:28:54.190Z,100969.44
2022-11-01T05:31:23.381Z,100955.69
2022-11-01T05:33:52.716Z,100962.63
2022-11-01T05:36:24.250Z,100959.50
2022-11-01T05:38:59.383Z,100961.22
2022-11-01T05:41:28.466Z,100943.22
2022-11-01T05:43:58.211Z,100948.03
2022-11-01T05:46:27.073Z,100955.47
2022-11-01T05:48:55.870Z,100959.84
2022-11-01T05:51:25.061Z,100957.50
2022-11-01T05:53:56.337Z,100957.13
2022-11-01T05:56:28.204Z,100966.34
2022-11-01T05:59:07.101Z,100955.84
2022-11-01T06:01:35.798Z,100941.84
2022-11-01T06:04:05.054Z,100954.22
2022-11-01T06:06:35.475Z,100972.28
2022-11-01T06:09:07.975Z,100962.16
2022-11-01T06:11:44.666Z,100963.25
2022-11-01T06:14:14.335Z,100969.09
2022-11-01T06:16:45.505Z,100987.41
2022-11-01T06:19:18.208Z,100964.09
2022-11-01T06:21:48.204Z,100980.25
2022-11-01T06:24:23.064Z,100982.16
2022-11-01T06:26:51.729Z,100991.03
2022-11-01T06:29:20.884Z,101006.78
2022-11-01T06:31:56.358Z,100993.78
2022-11-01T06:34:25.758Z,100991.94
2022-11-01T06:40:14.484Z,100990.78
2022-11-01T06:42:51.474Z,101005.09
2022-11-01T06:45:23.845Z,101004.00
2022-11-01T06:47:54.380Z,101007.63
2022-11-01T06:50:26.649Z,101024.25
2022-11-01T06:53:00.617Z,100988.88
2022-11-01T06:55:31.624Z,101000.59
2022-11-01T06:58:05.422Z,101007.88
2022-11-01T07:03:37.700Z,101006.06
2022-11-01T07:06:06.773Z,101019.38
2022-11-01T07:08:35.471Z,101032.13
2022-11-01T07:11:09.208Z,101031.50
2022-11-01T07:13:40.438Z,101028.13
2022-11-01T07:16:10.836Z,101058.31
2022-11-01T07:18:40.343Z,101048.13
2022-11-01T07:21:19.609Z,101048.72
2022-11-01T07:23:52.789Z,101035.66
2022-11-01T07:26:25.847Z,101052.25
2022-11-01T07:28:55.066Z,101055.75
2022-11-01T07:31:27.315Z,101069.41
2022-11-01T07:33:56.747Z,101079.75
2022-11-01T07:36:26.929Z,101093.75
2022-11-01T07:38:56.338Z,101079.44
2022-11-01T07:41:28.825Z,101073.72
2022-11-01T07:44:00.046Z,101067.09
2022-11-01T07:46:29.152Z,101105.75
2022-11-01T07:49:00.856Z,101083.28
2022-11-01T07:51:30.973Z,101130.53
2022-11-01T07:56:31.529Z,101120.00
2022-11-01T07:59:00.782Z,101116.09
2022-11-01T08:01:30.432Z,101127.16
2022-11-01T08:03:59.455Z,101136.06
2022-11-01T08:06:27.810Z,101141.78
2022-11-01T08:08:57.374Z,101150.41
2022-11-01T08:11:26.482Z,101159.44
2022-11-01T08:14:02.917Z,101152.81
2022-11-01T08:16:34.293Z,101158.97
2022-11-01T08:19:10.799Z,101162.19
2022-11-01T08:21:44.547Z,101171.59
2022-11-01T08:24:18.357Z,101176.81
2022-11-01T08:26:52.957Z,101197.84
2022-11-01T08:29:32.029Z,101183.63
2022-11-01T08:32:08.911Z,101194.72
2022-11-01T08:34:55.506Z,101198.75
2022-11-01T08:37:24.989Z,101212.88
2022-11-01T08:39:55.017Z,101209.13
2022-11-01T08:42:24.627Z,101214.09
2022-11-01T08:44:54.471Z,101213.50
2022-11-01T08:47:24.047Z,101223.66
2022-11-01T08:49:52.737Z,101233.50
2022-11-01T08:52:21.784Z,101225.88
2022-11-01T08:54:50.852Z,101235.84
2022-11-01T08:57:20.700Z,101238.03
2022-11-01T08:59:51.879Z,101250.78
2022-11-01T09:02:24.063Z,101259.66
2022-11-01T09:04:53.105Z,101269.41
2022-11-01T09:07:23.013Z,101262.97
2022-11-01T09:09:53.160Z,101259.47
2022-11-01T09:12:24.774Z,101278.50
2022-11-01T09:14:53.694Z,101271.66
2022-11-01T09:17:24.318Z,101270.41
2022-11-01T09:19:53.329Z,101271.25
2022-11-01T09:22:22.106Z,101288.09
2022-11-01T09:24:51.799Z,101291.34
2022-11-01T09:27:22.904Z,101280.81
2022-11-01T09:29:54.354Z,101286.66
2022-11-01T09:32:25.431Z,101304.00
2022-11-01T09:34:54.238Z,101304.41
2022-11-01T09:37:23.759Z,101304.16
2022-11-01T09:39:52.913Z,101318.41
2022-11-01T09:42:28.527Z,101312.56
2022-11-01T09:45:06.887Z,101328.41
2022-11-01T09:47:39.986Z,101320.72
2022-11-01T09:50:22.793Z,101321.00
2022-11-01T09:52:53.290Z,101332.06
2022-11-01T09:55:40.331Z,101337.47
2022-11-01T09:58:23.962Z,101341.69
2022-11-01T10:01:18.950Z,101351.28
2022-11-01T10:04:07.513Z,101343.88
2022-11-01T10:06:43.584Z,101345.84
2022-11-01T10:09:39.930Z,101345.31
2022-11-01T10:12:26.904Z,101352.34
2022-11-01T10:15:22.999Z,101349.78
2022-11-01T10:17:54.045Z,101360.63
2022-11-01T10:20:35.276Z,101363.66
2022-11-01T10:23:06.424Z,101369.53
2022-11-01T10:25:40.520Z,101361.84
2022-11-01T10:28:24.067Z,101371.47
2022-11-01T10:30:58.369Z,101374.56
2022-11-01T10:33:33.359Z,101369.13
2022-11-01T10:36:11.814Z,101374.16
2022-11-01T10:39:37.302Z,101375.75
2022-11-01T10:41:42.316Z,101365.19
2022-11-01T10:44:19.048Z,101364.22
2022-11-01T10:46:52.591Z,101370.00
2022-11-01T10:49:40.523Z,101382.56
2022-11-01T10:52:29.620Z,101375.78
2022-11-01T10:55:00.414Z,101385.41
2022-11-01T10:57:39.967Z,101385.41
2022-11-01T11:00:17.640Z,101390.47
2022-11-01T11:02:51.517Z,101390.22
2022-11-01T11:05:25.025Z,101377.91
2022-11-01T11:07:57.901Z,101392.56
2022-11-01T11:10:30.076Z,101379.00
2022-11-01T11:13:03.209Z,101380.63
2022-11-01T11:15:46.042Z,101369.91
2022-11-01T11:18:27.018Z,101363.44
2022-11-01T11:21:00.364Z,101349.59
2022-11-01T11:23:34.836Z,101368.06
2022-11-01T11:26:06.909Z,101367.56
2022-11-01T11:28:45.587Z,101363.13
2022-11-01T11:31:23.332Z,101360.31
2022-11-01T11:33:56.113Z,101378.47
2022-11-01T11:36:35.181Z,101383.84
2022-11-01T11:39:10.321Z,101364.31
2022-11-01T11:41:42.065Z,101372.19
2022-11-01T11:44:44.510Z,101390.13
2022-11-01T11:47:24.569Z,101377.47
2022-11-01T11:49:56.520Z,101380.47
2022-11-01T11:52:38.620Z,101385.69
2022-11-01T11:55:44.972Z,101388.69
2022-11-01T11:58:27.447Z,101387.66
2022-11-01T12:01:03.005Z,101381.00
2022-11-01T12:03:38.648Z,101384.41
2022-11-01T12:06:11.012Z,101381.06
2022-11-01T12:08:49.192Z,101390.28
2022-11-01T12:11:20.680Z,101390.19
2022-11-01T12:14:04.756Z,101382.72
2022-11-01T12:16:42.444Z,101377.59
2022-11-01T12:19:27.548Z,101385.38
2022-11-01T12:22:02.100Z,101377.16
2022-11-01T12:24:39.211Z,101374.81
2022-11-01T12:27:18.163Z,101369.47
2022-11-01T12:29:54.279Z,101378.47
2022-11-01T12:32:34.010Z,101368.34
2022-11-01T12:35:12.624Z,101384.69
2022-11-01T12:37:53.256Z,101365.63
2022-11-01T12:40:27.982Z,101366.28
2022-11-01T12:43:13.504Z,101371.31
2022-11-01T12:45:51.778Z,101368.06
2022-11-01T12:48:29.030Z,101342.78
2022-11-01T12:51:02.426Z,101364.91
2022-11-01T12:53:38.409Z,101361.06
2022-11-01T12:56:09.384Z,101371.63
2022-11-01T12:58:57.113Z,101372.94
2022-11-01T13:01:40.224Z,101376.28
2022-11-01T13:04:31.363Z,101370.28
2022-11-01T13:07:18.018Z,101367.28
2022-11-01T13:10:07.266Z,101364.44
2022-11-01T13:12:52.556Z,101372.75
2022-11-01T13:15:32.405Z,101354.22
2022-11-01T13:18:16.226Z,101356.47
2022-11-01T13:20:55.165Z,101343.31
2022-11-01T13:23:33.366Z,101365.84
2022-11-01T13:26:09.413Z,101361.13
2022-11-01T13:29:09.106Z,101358.81
2022-11-01T13:32:05.994Z,101358.03
2022-11-01T13:34:50.420Z,101357.91
2022-11-01T13:37:43.842Z,101347.13
2022-11-01T13:40:23.604Z,101350.06
2022-11-01T13:43:03.005Z,101364.69
2022-11-01T13:46:20.355Z,101356.16
2022-11-01T13:49:31.841Z,101365.38
2022-11-01T13:52:12.542Z,101353.03
2022-11-01T13:54:50.683Z,101373.66
2022-11-01T13:57:25.233Z,101365.00
2022-11-01T13:59:57.860Z,101366.84
2022-11-01T14:02:57.822Z,101363.25
2022-11-01T14:05:42.351Z,101368.47
2022-11-01T14:08:32.615Z,101377.31
2022-11-01T14:11:04.105Z,101365.91
2022-11-01T14:13:47.843Z,101366.19
2022-11-01T14:16:25.767Z,101368.34
2022-11-01T14:19:22.862Z,101377.06
2022-11-01T14:21:56.243Z,101377.41
2022-11-01T14:24:35.695Z,101381.59
2022-11-01T14:27:36.338Z,101373.56
2022-11-01T14:30:16.309Z,101375.91
2022-11-01T14:32:52.843Z,101369.09
2022-11-01T14:35:38.599Z,101376.53
2022-11-01T14:38:13.169Z,101373.31
2022-11-01T14:40:45.341Z,101372.94
2022-11-01T14:43:21.607Z,101375.31
2022-11-01T14:45:59.009Z,101375.41
2022-11-01T14:48:40.308Z,101381.56
2022-11-01T14:51:19.704Z,101397.72
2022-11-01T14:53:59.882Z,101393.94
2022-11-01T14:56:40.909Z,101388.97
2022-11-01T14:59:14.518Z,101376.44
2022-11-01T15:01:50.411Z,101372.22
2022-11-01T15:04:29.423Z,101382.81
2022-11-01T15:07:07.599Z,101385.75
2022-11-01T15:09:40.688Z,101365.56
2022-11-01T15:12:12.494Z,101386.03
2022-11-01T15:14:45.811Z,101381.78
2022-11-01T15:17:24.184Z,101380.09
2022-11-01T15:19:56.774Z,101374.81
2022-11-01T15:22:31.909Z,101375.91
2022-11-01T15:25:08.434Z,101377.28
2022-11-01T15:27:43.259Z,101378.88
2022-11-01T15:30:23.954Z,101367.75
2022-11-01T15:32:56.030Z,101365.91
2022-11-01T15:35:28.370Z,101365.66
2022-11-01T15:37:57.874Z,101357.16
2022-11-01T15:40:32.602Z,101357.13
2022-11-01T15:43:07.199Z,101360.63
2022-11-01T15:45:39.926Z,101363.81
2022-11-01T15:48:15.236Z,101361.94
2022-11-01T15:50:48.899Z,101362.28
2022-11-01T15:53:23.364Z,101352.94
2022-11-01T15:56:00.618Z,101370.19
2022-11-01T15:58:36.405Z,101367.34
2022-11-01T16:01:19.619Z,101369.66
2022-11-01T16:03:57.446Z,101361.09
2022-11-01T16:06:36.394Z,101367.06
2022-11-01T16:09:15.638Z,101366.28
2022-11-01T16:12:06.388Z,101384.25
2022-11-01T16:14:52.285Z,101374.25
2022-11-01T16:17:48.701Z,101363.56
2022-11-01T16:20:30.493Z,101368.59
2022-11-01T16:23:04.967Z,101383.84
2022-11-01T16:25:39.226Z,101378.72
2022-11-01T16:28:31.386Z,101383.06
2022-11-01T16:31:14.911Z,101365.28
2022-11-01T16:33:55.156Z,101384.06
2022-11-01T16:36:45.190Z,101389.25
2022-11-01T16:39:33.528Z,101393.94
2022-11-01T16:42:05.140Z,101394.22
2022-11-01T16:44:40.420Z,101395.06
2022-11-01T16:47:11.484Z,101393.34
2022-11-01T16:49:48.296Z,101384.00
2022-11-01T16:58:20.034Z,101373.00
2022-11-01T17:00:57.518Z,101378.75
2022-11-01T17:03:28.125Z,101386.00
2022-11-01T17:05:58.095Z,101387.91
2022-11-01T17:11:25.833Z,101381.03
2022-11-01T17:13:54.391Z,101391.00
2022-11-01T17:16:30.723Z,101391.88
2022-11-01T17:19:03.745Z,101387.66
2022-11-01T17:21:39.015Z,101409.19
2022-11-01T17:30:02.595Z,101398.44
2022-11-01T17:36:16.250Z,101394.13
2022-11-01T17:38:47.331Z,101394.66
2022-11-01T17:41:21.427Z,101393.75
2022-11-01T17:43:49.969Z,101408.31
2022-11-01T17:46:25.562Z,101401.44
2022-11-01T17:48:58.428Z,101404.75
2022-11-01T17:51:30.075Z,101406.72
2022-11-01T17:54:00.341Z,101401.13
2022-11-01T17:56:29.714Z,101395.59
2022-11-01T17:58:59.412Z,101388.38
2022-11-01T18:01:30.280Z,101380.81
2022-11-01T18:07:23.020Z,101400.84
2022-11-01T18:13:01.048Z,101401.81
2022-11-01T18:15:40.110Z,101402.53
2022-11-01T18:18:50.311Z,101403.63
2022-11-01T18:21:31.522Z,101407.03
2022-11-01T18:24:19.785Z,101420.44
2022-11-01T18:26:51.287Z,101408.38
2022-11-01T18:29:23.781Z,101401.53
2022-11-01T18:32:07.655Z,101405.28
2022-11-01T18:34:45.296Z,101399.84
2022-11-01T18:37:26.226Z,101396.41
2022-11-01T18:40:06.029Z,101406.44
2022-11-01T18:42:38.519Z,101397.28
2022-11-01T18:45:51.124Z,101393.47
2022-11-01T18:48:26.555Z,101409.06
2022-11-01T18:51:05.002Z,101402.66
2022-11-01T18:53:36.988Z,101397.44
2022-11-01T18:56:21.940Z,101402.03
2022-11-01T18:58:53.235Z,101404.81
2022-11-01T19:01:34.266Z,101402.97
2022-11-01T19:04:15.173Z,101411.53
2022-11-01T19:06:49.292Z,101400.69
2022-11-01T19:09:24.189Z,101410.00
2022-11-01T19:12:03.235Z,101404.84
2022-11-01T19:14:33.699Z,101407.53
2022-11-01T19:17:04.978Z,101424.94
2022-11-01T19:19:37.273Z,101418.97
2022-11-01T19:22:35.320Z,101419.31
2022-11-01T19:25:08.858Z,101407.66
2022-11-01T19:27:40.256Z,101405.47
2022-11-01T19:30:22.620Z,101418.81
2022-11-01T19:32:54.674Z,101414.03
2022-11-01T19:35:24.339Z,101411.06
2022-11-01T19:37:57.295Z,101411.53
2022-11-01T19:40:33.178Z,101401.66
2022-11-01T19:43:13.568Z,101409.94
2022-11-01T19:45:48.711Z,101398.66
2022-11-01T19:48:22.880Z,101416.50
2022-11-01T19:50:51.916Z,101403.66
2022-11-01T19:53:31.973Z,101405.56
2022-11-01T19:56:17.236Z,101411.75
2022-11-01T19:58:51.674Z,101386.16
2022-11-01T20:01:42.287Z,101384.63
2022-11-01T20:04:27.901Z,101381.69
2022-11-01T20:07:01.416Z,101389.72
2022-11-01T20:09:32.756Z,101392.97
2022-11-01T20:12:03.724Z,101388.75
2022-11-01T20:14:40.314Z,101393.09
2022-11-01T20:17:09.317Z,101398.88
2022-11-01T20:19:38.693Z,101390.16
2022-11-01T20:22:07.589Z,101389.41
2022-11-01T20:24:36.180Z,101378.47
2022-11-01T20:27:05.114Z,101394.50
2022-11-01T20:29:35.756Z,101371.13
2022-11-01T20:32:07.244Z,101369.63
2022-11-01T20:34:41.553Z,101374.59
2022-11-01T20:39:59.828Z,101355.34
2022-11-01T20:42:28.965Z,101367.69
2022-11-01T20:45:01.081Z,101372.84
2022-11-01T20:47:30.400Z,101355.22
2022-11-01T20:49:59.702Z,101360.53
2022-11-01T20:52:46.209Z,101363.34
2022-11-01T20:55:15.395Z,101365.66
2022-11-01T20:58:00.224Z,101370.25
2022-11-01T21:00:32.155Z,101355.81
2022-11-01T21:03:07.587Z,101364.47
2022-11-01T21:05:36.754Z,101357.31
2022-11-01T21:08:16.276Z,101352.78
2022-11-01T21:10:46.015Z,101350.91
2022-11-01T21:13:29.936Z,101362.28
2022-11-01T21:16:04.672Z,101360.13
2022-11-01T21:18:46.192Z,101357.97
2022-11-01T21:21:46.550Z,101362.09
2022-11-01T21:24:33.302Z,101370.16
2022-11-01T21:30:06.404Z,101361.53
2022-11-01T21:32:45.014Z,101359.06
2022-11-01T21:35:41.136Z,101367.88
2022-11-01T21:38:39.059Z,101368.75
2022-11-01T21:41:39.145Z,101366.63
2022-11-01T21:44:29.510Z,101363.41
2022-11-01T21:47:02.458Z,101371.66
2022-11-01T21:49:35.674Z,101362.53
2022-11-01T21:52:07.999Z,101359.16
2022-11-01T21:54:42.798Z,101367.44
2022-11-01T21:57:14.568Z,101370.41
2022-11-01T21:59:43.949Z,101371.00
2022-11-01T22:02:15.022Z,101366.38
2022-11-01T22:04:48.389Z,101368.94
2022-11-01T22:07:17.191Z,101369.22
2022-11-01T22:09:48.990Z,101386.03
2022-11-01T22:12:22.259Z,101375.03
2022-11-01T22:14:51.734Z,101388.38
2022-11-01T22:17:21.561Z,101399.75
2022-11-01T22:19:51.377Z,101400.94
2022-11-01T22:22:20.853Z,101407.38
2022-11-01T22:24:55.119Z,101430.25
2022-11-01T22:27:25.684Z,101442.00
2022-11-01T22:29:55.460Z,101429.59
2022-11-01T22:32:24.202Z,101427.78
2022-11-01T22:34:56.521Z,101413.75
2022-11-01T22:37:28.038Z,101426.31
2022-11-01T22:39:56.853Z,101431.38
2022-11-01T22:42:28.886Z,101426.59
2022-11-01T22:44:58.355Z,101421.91
2022-11-01T22:47:30.108Z,101421.53
2022-11-01T22:50:04.252Z,101425.47
2022-11-01T22:52:42.375Z,101409.13
2022-11-01T22:55:24.457Z,101434.06
2022-11-01T22:57:59.513Z,101450.78
2022-11-01T23:00:39.136Z,101455.88
2022-11-01T23:03:22.434Z,101462.97
2022-11-01T23:05:55.963Z,101470.72
2022-11-01T23:08:29.433Z,101486.06
2022-11-01T23:11:04.081Z,101476.03
2022-11-01T23:13:53.439Z,101459.81
2022-11-01T23:16:29.544Z,101472.50
2022-11-01T23:19:05.463Z,101472.69
2022-11-01T23:21:37.430Z,101479.06
2022-11-01T23:24:09.154Z,101480.31
2022-11-01T23:26:38.419Z,101495.28
2022-11-01T23:29:07.333Z,101484.22
2022-11-01T23:31:37.691Z,101499.72
2022-11-01T23:34:11.733Z,101454.34
2022-11-01T23:36:43.126Z,101463.00
2022-11-01T23:39:14.874Z,101449.47
2022-11-01T23:41:46.582Z,101447.56
2022-11-01T23:44:27.369Z,101445.06
2022-11-01T23:47:01.932Z,101443.19
2022-11-01T23:49:34.973Z,101434.41
2022-11-01T23:52:30.955Z,101438.94
2022-11-01T23:55:02.716Z,101426.75
2022-11-01T23:57:34.450Z,101412.38
